Fisktrans — LIAB — position and weather

sailwx.info

Track history (hours):
 
Tides and Currents Weather Stations Pressure Air Temp Water Temp Dewpoint Dewpoint Depression Visibility Wind Speed Wind Dir Waves Ship Positions

Fisktrans

Last reported at 2015-Apr-26 18:31 UTC. Time now 2015-Apr-27 20:46 UTC.
Position N 62°35' E 006°55'.

Length 58 m.

Type: Cargo ship. MMSI: 258034000.

Date/timePositionNaut miles runAvg speedWind from/ knotsBaromVisibWave heightAir tempDewpointWater temp
2015-Apr-26 18:31N 62°35' E 006°55'  
2015-Apr-23 00:29N 63°07' E 007°44'58 4.4
2015-Apr-22 11:30N 63°41' E 009°28'75 3.6
2015-Apr-21 14:28N 64°45' E 010°59'9 9.7
2015-Apr-21 13:34N 64°51' E 011°14'10 9.7
2015-Apr-21 12:33N 64°57' E 011°31'10 9.5
2015-Apr-21 11:33N 65°05' E 011°46'77 9.3
2015-Apr-21 03:16N 66°17' E 012°55'7 9.5
2015-Apr-21 02:30N 66°24' E 012°59'36 9.0
2015-Apr-20 22:29N 66°58' E 013°30'9 9.4
2015-Apr-20 21:32N 67°03' E 013°49'9 9.4
2015-Apr-20 20:33N 67°10' E 014°03'9 9.6
2015-Apr-20 19:33N 67°17' E 014°21'1 1.1
2015-Apr-20 18:34N 67°17' E 014°23'0 0.0
2015-Apr-20 17:33N 67°17' E 014°23'0 0.0
2015-Apr-20 16:33N 67°17' E 014°23'0 0.0
2015-Apr-20 15:33N 67°17' E 014°23'0 0.0
2015-Apr-20 14:34N 67°17' E 014°23'0 0.0
2015-Apr-20 13:34N 67°17' E 014°23'0 0.0
2015-Apr-20 12:33N 67°17' E 014°23'0 0.0
2015-Apr-20 11:33N 67°17' E 014°23'0 0.0
2015-Apr-20 10:33N 67°17' E 014°23'0 0.0
2015-Apr-20 09:33N 67°17' E 014°23'0 0.0
2015-Apr-20 08:33N 67°17' E 014°23'0 0.0
2015-Apr-20 07:33N 67°17' E 014°23'0 0.0
2015-Apr-20 06:33N 67°17' E 014°23'0 0.0
2015-Apr-20 05:34N 67°17' E 014°23'0 0.0
2015-Apr-20 04:33N 67°17' E 014°23'0 0.0
2015-Apr-20 03:33N 67°17' E 014°23'0 0.0
2015-Apr-20 02:33N 67°17' E 014°23'0 0.0
2015-Apr-20 01:33N 67°17' E 014°23'0 0.0
2015-Apr-20 00:33N 67°17' E 014°23'0 0.0
2015-Apr-19 23:33N 67°17' E 014°23'0 0.0
2015-Apr-19 22:33N 67°17' E 014°23'0 0.0
2015-Apr-19 21:33N 67°17' E 014°23'0 0.0
2015-Apr-19 20:33N 67°17' E 014°23'0 0.0
2015-Apr-19 19:33N 67°17' E 014°23'0 0.0
2015-Apr-19 18:33N 67°17' E 014°23'0 0.0
2015-Apr-19 17:33N 67°17' E 014°23'0 0.0
2015-Apr-19 16:33N 67°17' E 014°23'0 0.0
2015-Apr-19 15:33N 67°17' E 014°23'0 0.0
2015-Apr-19 14:33N 67°17' E 014°23'0 0.0
2015-Apr-19 13:34N 67°17' E 014°23'0 0.0
2015-Apr-19 12:34N 67°17' E 014°23'0 0.0
2015-Apr-19 11:34N 67°17' E 014°23'0 0.0
2015-Apr-19 10:33N 67°17' E 014°23'0 0.0
2015-Apr-19 09:33N 67°17' E 014°23'0 0.0
2015-Apr-19 08:34N 67°17' E 014°23'0 0.0
2015-Apr-19 07:33N 67°17' E 014°23'0 0.0
2015-Apr-19 06:34N 67°17' E 014°23'0 0.0
2015-Apr-19 05:33N 67°17' E 014°23'0 0.0
2015-Apr-19 04:33N 67°17' E 014°23'0 0.0
2015-Apr-19 03:33N 67°17' E 014°23'0 0.0
2015-Apr-19 02:33N 67°17' E 014°23'0 0.0
2015-Apr-19 01:33N 67°17' E 014°23'0 0.0
2015-Apr-19 00:33N 67°17' E 014°23'0 0.0
2015-Apr-18 23:34N 67°17' E 014°23'0 0.0
2015-Apr-18 22:33N 67°17' E 014°23'0 0.0
2015-Apr-18 21:34N 67°17' E 014°23'0 0.0
2015-Apr-18 20:33N 67°17' E 014°23'0 0.0
2015-Apr-18 19:33N 67°17' E 014°23'0 0.0
2015-Apr-18 18:33N 67°17' E 014°23'0 0.0
2015-Apr-18 17:34N 67°17' E 014°23'0 0.0
2015-Apr-18 16:34N 67°17' E 014°23'0 0.0
2015-Apr-18 15:34N 67°17' E 014°23'0 0.0
2015-Apr-18 14:34N 67°17' E 014°23'0 0.0
2015-Apr-18 13:33N 67°17' E 014°23'0 0.0
2015-Apr-18 12:34N 67°17' E 014°23'0 0.0
2015-Apr-18 11:33N 67°17' E 014°23'0 0.4
2015-Apr-18 10:33N 67°18' E 014°23'0 0.0
2015-Apr-18 09:33N 67°18' E 014°23'0 0.0
2015-Apr-18 08:33N 67°18' E 014°23'0 0.0
2015-Apr-18 07:34N 67°18' E 014°23'0 0.0
2015-Apr-18 06:33N 67°18' E 014°23'0 0.0
2015-Apr-18 05:33N 67°18' E 014°23'0 0.0
2015-Apr-18 04:33N 67°18' E 014°23'0 0.0
2015-Apr-18 03:33N 67°18' E 014°23'0 0.0
2015-Apr-18 02:34N 67°18' E 014°23'0 0.0
2015-Apr-18 01:33N 67°18' E 014°23'0 0.0
2015-Apr-18 00:33N 67°18' E 014°23'0 0.0
2015-Apr-17 23:33N 67°18' E 014°23'0 0.0
2015-Apr-17 22:33N 67°18' E 014°23'0 0.0
2015-Apr-17 21:33N 67°18' E 014°23'0 0.0
2015-Apr-17 20:34N 67°18' E 014°23'0 0.0
2015-Apr-17 19:33N 67°18' E 014°23'0 0.0
2015-Apr-17 18:33N 67°18' E 014°23'0 0.0
2015-Apr-17 17:34N 67°18' E 014°23'0 0.0
2015-Apr-17 16:34N 67°18' E 014°23'0 0.0
2015-Apr-17 15:33N 67°18' E 014°23'0 0.0
2015-Apr-17 14:34N 67°18' E 014°23'0 0.0
2015-Apr-17 13:33N 67°18' E 014°23'0 0.0
2015-Apr-17 12:33N 67°18' E 014°23'0 0.0
2015-Apr-17 11:34N 67°18' E 014°23'0 0.0
2015-Apr-17 10:34N 67°18' E 014°23'0 0.0
2015-Apr-17 09:33N 67°18' E 014°23'0 0.0
2015-Apr-17 08:33N 67°18' E 014°23'0 0.3
2015-Apr-17 07:33N 67°17' E 014°23'0 0.4
2015-Apr-17 06:33N 67°18' E 014°23'0 0.0
2015-Apr-17 05:34N 67°18' E 014°23'0 0.0
2015-Apr-17 04:33N 67°18' E 014°23'0 0.0
2015-Apr-17 03:33N 67°18' E 014°23'0 0.0
2015-Apr-17 02:33N 67°18' E 014°23'0 0.0
2015-Apr-17 01:33N 67°18' E 014°23'0 0.0
2015-Apr-17 00:33N 67°18' E 014°23'0 0.0
2015-Apr-16 23:34N 67°18' E 014°23'0 0.0
2015-Apr-16 22:34N 67°18' E 014°23'0 0.0
2015-Apr-16 21:34N 67°18' E 014°23'0 0.0
2015-Apr-16 20:34N 67°18' E 014°23'0 0.0
2015-Apr-16 19:34N 67°18' E 014°23'0 0.0
2015-Apr-16 18:33N 67°18' E 014°23'  
Track history (hours):
 
Tides and Currents Weather Stations Pressure Air Temp Water Temp Dewpoint Dewpoint Depression Visibility Wind Speed Wind Dir Waves Ship Positions

Fisktrans

Last reported at 2015-Apr-26 18:31 UTC. Time now 2015-Apr-27 20:46 UTC.
Position N 62°35' E 006°55'.

Length 58 m.

Type: Cargo ship. MMSI: 258034000.

Date/timePositionNaut miles runAvg speedWind from/ knotsBaromVisibWave heightAir tempDewpointWater temp
2015-Apr-26 18:31N 62°35' E 006°55'  
2015-Apr-23 00:29N 63°07' E 007°44'58 4.4
2015-Apr-22 11:30N 63°41' E 009°28'75 3.6
2015-Apr-21 14:28N 64°45' E 010°59'9 9.7
2015-Apr-21 13:34N 64°51' E 011°14'10 9.7
2015-Apr-21 12:33N 64°57' E 011°31'10 9.5
2015-Apr-21 11:33N 65°05' E 011°46'77 9.3
2015-Apr-21 03:16N 66°17' E 012°55'7 9.5
2015-Apr-21 02:30N 66°24' E 012°59'36 9.0
2015-Apr-20 22:29N 66°58' E 013°30'9 9.4
2015-Apr-20 21:32N 67°03' E 013°49'9 9.4
2015-Apr-20 20:33N 67°10' E 014°03'9 9.6
2015-Apr-20 19:33N 67°17' E 014°21'1 1.1
2015-Apr-20 18:34N 67°17' E 014°23'0 0.0
2015-Apr-20 17:33N 67°17' E 014°23'0 0.0
2015-Apr-20 16:33N 67°17' E 014°23'0 0.0
2015-Apr-20 15:33N 67°17' E 014°23'0 0.0
2015-Apr-20 14:34N 67°17' E 014°23'0 0.0
2015-Apr-20 13:34N 67°17' E 014°23'0 0.0
2015-Apr-20 12:33N 67°17' E 014°23'0 0.0
2015-Apr-20 11:33N 67°17' E 014°23'0 0.0
2015-Apr-20 10:33N 67°17' E 014°23'0 0.0
2015-Apr-20 09:33N 67°17' E 014°23'0 0.0
2015-Apr-20 08:33N 67°17' E 014°23'0 0.0
2015-Apr-20 07:33N 67°17' E 014°23'0 0.0
2015-Apr-20 06:33N 67°17' E 014°23'0 0.0
2015-Apr-20 05:34N 67°17' E 014°23'0 0.0
2015-Apr-20 04:33N 67°17' E 014°23'0 0.0
2015-Apr-20 03:33N 67°17' E 014°23'0 0.0
2015-Apr-20 02:33N 67°17' E 014°23'0 0.0
2015-Apr-20 01:33N 67°17' E 014°23'0 0.0
2015-Apr-20 00:33N 67°17' E 014°23'0 0.0
2015-Apr-19 23:33N 67°17' E 014°23'0 0.0
2015-Apr-19 22:33N 67°17' E 014°23'0 0.0
2015-Apr-19 21:33N 67°17' E 014°23'0 0.0
2015-Apr-19 20:33N 67°17' E 014°23'0 0.0
2015-Apr-19 19:33N 67°17' E 014°23'0 0.0
2015-Apr-19 18:33N 67°17' E 014°23'0 0.0
2015-Apr-19 17:33N 67°17' E 014°23'0 0.0
2015-Apr-19 16:33N 67°17' E 014°23'0 0.0
2015-Apr-19 15:33N 67°17' E 014°23'0 0.0
2015-Apr-19 14:33N 67°17' E 014°23'0 0.0
2015-Apr-19 13:34N 67°17' E 014°23'0 0.0
2015-Apr-19 12:34N 67°17' E 014°23'0 0.0
2015-Apr-19 11:34N 67°17' E 014°23'0 0.0
2015-Apr-19 10:33N 67°17' E 014°23'0 0.0
2015-Apr-19 09:33N 67°17' E 014°23'0 0.0
2015-Apr-19 08:34N 67°17' E 014°23'0 0.0
2015-Apr-19 07:33N 67°17' E 014°23'0 0.0
2015-Apr-19 06:34N 67°17' E 014°23'0 0.0
2015-Apr-19 05:33N 67°17' E 014°23'0 0.0
2015-Apr-19 04:33N 67°17' E 014°23'0 0.0
2015-Apr-19 03:33N 67°17' E 014°23'0 0.0
2015-Apr-19 02:33N 67°17' E 014°23'0 0.0
2015-Apr-19 01:33N 67°17' E 014°23'0 0.0
2015-Apr-19 00:33N 67°17' E 014°23'0 0.0
2015-Apr-18 23:34N 67°17' E 014°23'0 0.0
2015-Apr-18 22:33N 67°17' E 014°23'0 0.0
2015-Apr-18 21:34N 67°17' E 014°23'0 0.0
2015-Apr-18 20:33N 67°17' E 014°23'0 0.0
2015-Apr-18 19:33N 67°17' E 014°23'0 0.0
2015-Apr-18 18:33N 67°17' E 014°23'0 0.0
2015-Apr-18 17:34N 67°17' E 014°23'0 0.0
2015-Apr-18 16:34N 67°17' E 014°23'0 0.0
2015-Apr-18 15:34N 67°17' E 014°23'0 0.0
2015-Apr-18 14:34N 67°17' E 014°23'0 0.0
2015-Apr-18 13:33N 67°17' E 014°23'0 0.0
2015-Apr-18 12:34N 67°17' E 014°23'0 0.0
2015-Apr-18 11:33N 67°17' E 014°23'0 0.4
2015-Apr-18 10:33N 67°18' E 014°23'0 0.0
2015-Apr-18 09:33N 67°18' E 014°23'0 0.0
2015-Apr-18 08:33N 67°18' E 014°23'0 0.0
2015-Apr-18 07:34N 67°18' E 014°23'0 0.0
2015-Apr-18 06:33N 67°18' E 014°23'0 0.0
2015-Apr-18 05:33N 67°18' E 014°23'0 0.0
2015-Apr-18 04:33N 67°18' E 014°23'0 0.0
2015-Apr-18 03:33N 67°18' E 014°23'0 0.0
2015-Apr-18 02:34N 67°18' E 014°23'0 0.0
2015-Apr-18 01:33N 67°18' E 014°23'0 0.0
2015-Apr-18 00:33N 67°18' E 014°23'0 0.0
2015-Apr-17 23:33N 67°18' E 014°23'0 0.0
2015-Apr-17 22:33N 67°18' E 014°23'0 0.0
2015-Apr-17 21:33N 67°18' E 014°23'0 0.0
2015-Apr-17 20:34N 67°18' E 014°23'0 0.0
2015-Apr-17 19:33N 67°18' E 014°23'0 0.0
2015-Apr-17 18:33N 67°18' E 014°23'0 0.0
2015-Apr-17 17:34N 67°18' E 014°23'0 0.0
2015-Apr-17 16:34N 67°18' E 014°23'0 0.0
2015-Apr-17 15:33N 67°18' E 014°23'0 0.0
2015-Apr-17 14:34N 67°18' E 014°23'0 0.0
2015-Apr-17 13:33N 67°18' E 014°23'0 0.0
2015-Apr-17 12:33N 67°18' E 014°23'0 0.0
2015-Apr-17 11:34N 67°18' E 014°23'0 0.0
2015-Apr-17 10:34N 67°18' E 014°23'0 0.0
2015-Apr-17 09:33N 67°18' E 014°23'0 0.0
2015-Apr-17 08:33N 67°18' E 014°23'0 0.3
2015-Apr-17 07:33N 67°17' E 014°23'0 0.4
2015-Apr-17 06:33N 67°18' E 014°23'0 0.0
2015-Apr-17 05:34N 67°18' E 014°23'0 0.0
2015-Apr-17 04:33N 67°18' E 014°23'0 0.0
2015-Apr-17 03:33N 67°18' E 014°23'0 0.0
2015-Apr-17 02:33N 67°18' E 014°23'0 0.0
2015-Apr-17 01:33N 67°18' E 014°23'0 0.0
2015-Apr-17 00:33N 67°18' E 014°23'0 0.0
2015-Apr-16 23:34N 67°18' E 014°23'0 0.0
2015-Apr-16 22:34N 67°18' E 014°23'0 0.0
2015-Apr-16 21:34N 67°18' E 014°23'0 0.0
2015-Apr-16 20:34N 67°18' E 014°23'0 0.0
2015-Apr-16 19:34N 67°18' E 014°23'0 0.0
2015-Apr-16 18:33N 67°18' E 014°23'  

Dump ship's entire track history